Musquodoboit Harbour, Canada
Current Conditions -  °F | °C
As of 9:00 AM on Thursday 27 Nov 2014 (Local Time) from CYHZ Reporting Station
Light Rain Light Rain  
Wind Chill: 31°   Ceiling: 200
Heat Index: 37°   Visibility: 2mi
Dew Point: 37°   Wind: 9mph
Humidity: 100%   Direction: 40°NE
Pressure: 29.28"   Gusts: NA
Location:  44.78°N, 63.15°W
Report Text: CYHZ 271300Z 04008KT 2SM -RADZ BR OVC002 03/03 A2928 RMK ST8 PRESFR SLP920
Loading
Personal Weather Stations






























Interactive Weather Map New forecast layout! Learn more

10-Day Weather Forecast

Advertisements
Track Severe Weather on mobile